RYR96AN EBCI-EDDB
Flight info
| Callsign | RYR96AN |
|---|---|
| Flight time | N/A |
| Altitude | 35000 |
| Route | SOPOK6U/24 SOPOK Y863 ROPUV L607 EMGOD DCT AMASI DCT MASEK T278 KLF KLF1R |
| Aircraft | B738/M-SDE2E3FGHIRWXY/LB1 |
Departure
| Time | 2026-05-07 19:46 |
|---|---|
| Airport | Brussels South Charleroi Airport (EBCI) |
Arrival
| Time | N/A |
|---|---|
| Airport | Berlin Brandenburg Airport (EDDB) |
| Time | Latitude | Longitude | Altitude | Speed | Heading |
|---|---|---|---|---|---|
| 2026-05-07 19:26 | 50.46943 | 4.47344 | 581 ft | 0 kts | 335° |
| 2026-05-07 19:40 | 50.46931 | 4.47353 | 581 ft | 2 kts | 335° |
| 2026-05-07 19:40 | 50.46917 | 4.47363 | 581 ft | 2 kts | 335° |
| 2026-05-07 19:40 | 50.46903 | 4.47372 | 581 ft | 2 kts | 356° |
| 2026-05-07 19:40 | 50.46889 | 4.47367 | 581 ft | 2 kts | 32° |
| 2026-05-07 19:41 | 50.46880 | 4.47354 | 581 ft | 0 kts | 62° |
| 2026-05-07 19:41 | 50.46878 | 4.47344 | 581 ft | 1 kts | 66° |
| 2026-05-07 19:41 | 50.46877 | 4.47342 | 581 ft | 0 kts | 66° |
| 2026-05-07 19:43 | 50.46885 | 4.47371 | 581 ft | 8 kts | 66° |
| 2026-05-07 19:43 | 50.46922 | 4.47503 | 579 ft | 14 kts | 66° |
| 2026-05-07 19:44 | 50.46892 | 4.47617 | 579 ft | 12 kts | 149° |
| 2026-05-07 19:44 | 50.46846 | 4.47653 | 579 ft | 0 kts | 155° |
| 2026-05-07 19:45 | 50.46829 | 4.47665 | 579 ft | 8 kts | 155° |
| 2026-05-07 19:45 | 50.46754 | 4.47716 | 579 ft | 12 kts | 156° |
| 2026-05-07 19:45 | 50.46693 | 4.47714 | 579 ft | 8 kts | 237° |
| 2026-05-07 19:45 | 50.46630 | 4.47503 | 581 ft | 50 kts | 245° |
| 2026-05-07 19:46 | 50.46382 | 4.46654 | 592 ft | 117 kts | 245° |
| 2026-05-07 19:46 | 50.45964 | 4.45217 | 624 ft | 169 kts | 244° |
| 2026-05-07 19:46 | 50.45474 | 4.43525 | 1217 ft | 173 kts | 245° |
| 2026-05-07 19:46 | 50.44987 | 4.41787 | 1860 ft | 178 kts | 247° |
| 2026-05-07 19:47 | 50.44506 | 4.40027 | 2553 ft | 176 kts | 244° |
| 2026-05-07 19:47 | 50.43959 | 4.38301 | 3101 ft | 182 kts | 242° |
| 2026-05-07 19:47 | 50.43396 | 4.36503 | 3657 ft | 187 kts | 244° |
| 2026-05-07 19:47 | 50.42847 | 4.34530 | 3924 ft | 213 kts | 247° |
| 2026-05-07 19:48 | 50.42267 | 4.32358 | 4490 ft | 223 kts | 246° |
| 2026-05-07 19:48 | 50.41542 | 4.30105 | 5045 ft | 236 kts | 234° |
| 2026-05-07 19:48 | 50.40405 | 4.28271 | 5831 ft | 237 kts | 212° |
| 2026-05-07 19:48 | 50.38908 | 4.27280 | 6530 ft | 240 kts | 190° |
| 2026-05-07 19:49 | 50.37248 | 4.27174 | 6887 ft | 239 kts | 169° |
| 2026-05-07 19:49 | 50.35678 | 4.28015 | 7040 ft | 236 kts | 146° |
| 2026-05-07 19:49 | 50.34396 | 4.29584 | 7069 ft | 237 kts | 135° |
| 2026-05-07 19:49 | 50.33361 | 4.31720 | 7377 ft | 252 kts | 116° |
| 2026-05-07 19:50 | 50.32433 | 4.34073 | 7798 ft | 268 kts | 130° |
| 2026-05-07 19:50 | 50.31284 | 4.36448 | 8330 ft | 277 kts | 117° |
| 2026-05-07 19:50 | 50.30662 | 4.39315 | 8984 ft | 282 kts | 98° |
| 2026-05-07 19:50 | 50.30469 | 4.42346 | 9659 ft | 287 kts | 93° |
| 2026-05-07 19:51 | 50.30358 | 4.45445 | 10339 ft | 291 kts | 93° |
| 2026-05-07 19:51 | 50.30219 | 4.48727 | 10745 ft | 307 kts | 94° |
| 2026-05-07 19:51 | 50.30037 | 4.52106 | 11121 ft | 323 kts | 95° |
| 2026-05-07 19:51 | 50.29815 | 4.55724 | 11492 ft | 339 kts | 95° |
| 2026-05-07 19:52 | 50.29655 | 4.59472 | 11839 ft | 356 kts | 91° |
| 2026-05-07 19:52 | 50.29625 | 4.63363 | 12418 ft | 364 kts | 90° |
| 2026-05-07 19:52 | 50.29644 | 4.67347 | 13066 ft | 370 kts | 90° |
| 2026-05-07 19:52 | 50.29665 | 4.71302 | 13717 ft | 376 kts | 90° |
| 2026-05-07 19:53 | 50.29670 | 4.75170 | 14403 ft | 380 kts | 91° |
| 2026-05-07 19:53 | 50.29658 | 4.79355 | 15135 ft | 385 kts | 91° |
| 2026-05-07 19:53 | 50.29637 | 4.83351 | 15810 ft | 389 kts | 91° |